cubair logo

For once you have tasted flight you will walk the earth with your eyes turned skywards,
for there you have been and there you will long to return.


"Leonardo da Vinci"

Welcome To CubAir Flight!

Cub Air Flight was founded in 2006, by Steve and Sharon Krog. Cub Air Flight school uses vintage Piper J3 Cub aircraft to instruct in, following a philosophy that “old school is still cool.” Cub Air Flight believes that these fine classic airplanes make better pilots by requiring more attention and flying skill than newer airplanes. We at Cub Air Flight hold that flying a vintage airplane is as much an art as it is a science.

The Piper J3 Cub is revered among aviators as a truly classic and iconic airplane. It has served as a trainer to more pilots than almost any airplane, earning a reputation as easy to fly but yet challenging enough to force students to continually better themselves. Cub Air uses two J3 Cubs, restored and maintained with the same attention to detail as a lovingly restored classic car. Cub Air also uses a Piper Cherokee for training requiring an aircraft with more advanced instruments.

Come fly with us and feel the freedom of
flying, the way it's supposed to be!


"Old School Is Still Cool!"

 

Our Instructors

Steve Krog

Find Us Here!

Hartford Municipal

Airport (KHXF)

4200 Highway U

Hartford, WI 53027

Our Staff

Steve Krog
Sharon Krog
Jamie Weber
Chris Hibben

Oshkosh Weather

[Source: ADDS]
METAR
KOSH 211453Z 29013G23KT 10SM FEW039 02/M06 A2969 RMK AO2 PK WND 29027/1407 PRESRR SLP061 T00221061 53055 =
TAF

West Bend Weather

[Source: ADDS]
METAR
KETB 211535Z AUTO 29019G31KT 10SM CLR 03/M10 A2972 RMK AO2 =
TAF

Juneau Weather

[Source: ADDS]
METAR
KUNU 211535Z AUTO 30009G18KT 10SM CLR 01/M07 A2977 RMK AO2 T00111069 =
TAF

Fond Du Lac Weather

[Source: ADDS]
METAR
KFLD 211453Z AUTO 30021G25KT 10SM CLR 03/M08 A2970 RMK AO2 PK WND 31027/1419 SLP061 T00281078 53051 =
TAF